CheckWX is a tool to help pilots better visualize weather data.  It is not intended as a substitute for an official pre-flight weather briefing.

13:38:35 UTC

LGSA METAR
Chania International Airport
Souda, Greece
Current

19 mins ago

LGSA 211320Z 00000KT 9999 FEW020 BKN100 21/16 Q1014
Observed
Nov-21 @ 13:20 UTC
Visibility
10,000+ meters
Flight Rules
VFR
Cloud Levels
  • Few at 2,000' AGL
  • Broken at 10,000' AGL
Temperature
21°C / 70°F
Dewpoint
16°C / 61°F
Humidity
73%
Altimeter
29.94" Hg
Pressure
1013.92 hPa
Previous

49 mins ago

LGSA 211250Z 00000KT 9999 FEW020 BKN100 21/16 Q1014
Observed
Nov-21 @ 12:50 UTC
Visibility
10,000+ meters
Flight Rules
VFR
Cloud Levels
  • Few at 2,000' AGL
  • Broken at 10,000' AGL
Temperature
21°C / 70°F
Dewpoint
16°C / 61°F
Humidity
73%
Altimeter
29.94" Hg
Pressure
1013.92 hPa
Previous

1 hour ago

LGSA 211220Z 32004KT 9999 FEW020 BKN100 21/14 Q1014
Observed
Nov-21 @ 12:20 UTC
Wind
  • 320° at 4 KTS
Visibility
10,000+ meters
Flight Rules
VFR
Cloud Levels
  • Few at 2,000' AGL
  • Broken at 10,000' AGL
Temperature
21°C / 70°F
Dewpoint
14°C / 57°F
Humidity
64%
Altimeter
29.94" Hg
Pressure
1013.92 hPa